Capt Amer — 3FCQ3 — position and weather

sailwx.info

Track history (hours):
 
Tides and Currents Weather Stations Pressure Air Temp Water Temp Dewpoint Dewpoint Depression Visibility Wind Speed Wind Dir Waves Ship Positions

Capt Amer

Last reported at 2015-Feb-26 15:33 UTC. Time now 2015-Mar-01 15:13 UTC.
Position N 37°17' E 024°52'.

; draft 7.6 m.

Type: Cargo ship. MMSI: 373175000.

Date/timePositionNaut miles runAvg speedWind from/ knotsBaromVisibWave heightAir tempDewpointWater temp
2015-Feb-26 15:33N 37°17' E 024°52'10 9.8
2015-Feb-26 14:33N 37°24' E 025°01'2 1.8
2015-Feb-26 13:31N 37°25' E 024°59'0 0.0
2015-Feb-26 12:30N 37°25' E 024°59'0 0.0
2015-Feb-26 11:30N 37°25' E 024°59'0 0.0
2015-Feb-26 10:30N 37°25' E 024°59'0 0.0
2015-Feb-26 09:32N 37°25' E 024°59'0 0.0
2015-Feb-26 08:30N 37°25' E 024°59'6 6.1
2015-Feb-26 07:33N 37°27' E 025°06'10 9.8
2015-Feb-26 06:34N 37°32' E 025°16'1110.9
2015-Feb-26 05:34N 37°43' E 025°16'1110.9
2015-Feb-26 04:33N 37°54' E 025°12'231 7.6
2015-Feb-24 22:03N 40°51' E 028°24'6 9.6
2015-Feb-24 21:24N 40°52' E 028°32'8 9.9
2015-Feb-24 20:33N 40°52' E 028°43'1110.6
2015-Feb-24 19:31N 40°49' E 028°57'1010.6
2015-Feb-24 18:33N 40°50' E 029°10'2 1.4
2015-Feb-24 17:13N 40°52' E 029°12'0 0.0
2015-Feb-24 16:31N 40°52' E 029°12'0 0.0
2015-Feb-24 15:25N 40°52' E 029°12'0 0.0
2015-Feb-24 14:07N 40°52' E 029°12'0 0.0
2015-Feb-24 13:25N 40°52' E 029°12'0 0.0
2015-Feb-24 12:31N 40°52' E 029°12'0 0.0
2015-Feb-24 11:31N 40°52' E 029°12'0 0.0
2015-Feb-24 10:31N 40°52' E 029°12'0 0.1
2015-Feb-24 09:31N 40°52' E 029°12'0 0.0
2015-Feb-24 08:31N 40°52' E 029°12'0 0.0
2015-Feb-24 07:31N 40°52' E 029°12'0 0.0
2015-Feb-24 06:25N 40°52' E 029°12'0 0.0
2015-Feb-24 05:31N 40°52' E 029°12'0 0.0
2015-Feb-24 04:19N 40°52' E 029°12'0 0.0
2015-Feb-24 03:31N 40°52' E 029°12'0 0.0
2015-Feb-24 02:31N 40°52' E 029°12'0 0.0
2015-Feb-24 01:25N 40°52' E 029°12'0 0.0
2015-Feb-24 00:25N 40°52' E 029°12'0 0.1
2015-Feb-23 23:19N 40°52' E 029°12'1 1.4
2015-Feb-23 22:33N 40°51' E 029°11'8 8.3
2015-Feb-23 21:33N 40°51' E 028°60'7 6.7
2015-Feb-23 20:32N 40°57' E 028°57'1 1.1
2015-Feb-23 19:21N 40°58' E 028°57'0 0.0
2015-Feb-23 18:11N 40°58' E 028°57'0 0.0
2015-Feb-23 17:17N 40°58' E 028°57'0 0.0
2015-Feb-23 16:29N 40°58' E 028°57'0 0.0
2015-Feb-23 15:29N 40°58' E 028°57'0 0.0
2015-Feb-23 14:29N 40°58' E 028°57'0 0.0
2015-Feb-23 13:29N 40°58' E 028°57'0 0.0
2015-Feb-23 12:23N 40°58' E 028°57'0 0.0
2015-Feb-23 11:23N 40°58' E 028°57'0 0.0
2015-Feb-23 10:29N 40°58' E 028°57'0 0.0
2015-Feb-23 09:05N 40°58' E 028°57'0 0.2
2015-Feb-23 08:33N 40°58' E 028°57'23 7.7
2015-Feb-23 05:33N 41°20' E 029°06'16 0.7
2015-Feb-22 06:07N 41°32' E 028°52'324 7.4
2015-Feb-20 10:07N 46°35' E 031°32'610.5
2015-Feb-20 09:32N 46°36' E 031°41'9 9.7
2015-Feb-20 08:34N 46°34' E 031°54'10 9.3
2015-Feb-20 07:32N 46°32' E 032°08'9 8.6
2015-Feb-20 06:31N 46°33' E 032°20'  
Track history (hours):
 
Tides and Currents Weather Stations Pressure Air Temp Water Temp Dewpoint Dewpoint Depression Visibility Wind Speed Wind Dir Waves Ship Positions

Capt Amer

Last reported at 2015-Feb-26 15:33 UTC. Time now 2015-Mar-01 15:13 UTC.
Position N 37°17' E 024°52'.

; draft 7.6 m.

Type: Cargo ship. MMSI: 373175000.

Date/timePositionNaut miles runAvg speedWind from/ knotsBaromVisibWave heightAir tempDewpointWater temp
2015-Feb-26 15:33N 37°17' E 024°52'10 9.8
2015-Feb-26 14:33N 37°24' E 025°01'2 1.8
2015-Feb-26 13:31N 37°25' E 024°59'0 0.0
2015-Feb-26 12:30N 37°25' E 024°59'0 0.0
2015-Feb-26 11:30N 37°25' E 024°59'0 0.0
2015-Feb-26 10:30N 37°25' E 024°59'0 0.0
2015-Feb-26 09:32N 37°25' E 024°59'0 0.0
2015-Feb-26 08:30N 37°25' E 024°59'6 6.1
2015-Feb-26 07:33N 37°27' E 025°06'10 9.8
2015-Feb-26 06:34N 37°32' E 025°16'1110.9
2015-Feb-26 05:34N 37°43' E 025°16'1110.9
2015-Feb-26 04:33N 37°54' E 025°12'231 7.6
2015-Feb-24 22:03N 40°51' E 028°24'6 9.6
2015-Feb-24 21:24N 40°52' E 028°32'8 9.9
2015-Feb-24 20:33N 40°52' E 028°43'1110.6
2015-Feb-24 19:31N 40°49' E 028°57'1010.6
2015-Feb-24 18:33N 40°50' E 029°10'2 1.4
2015-Feb-24 17:13N 40°52' E 029°12'0 0.0
2015-Feb-24 16:31N 40°52' E 029°12'0 0.0
2015-Feb-24 15:25N 40°52' E 029°12'0 0.0
2015-Feb-24 14:07N 40°52' E 029°12'0 0.0
2015-Feb-24 13:25N 40°52' E 029°12'0 0.0
2015-Feb-24 12:31N 40°52' E 029°12'0 0.0
2015-Feb-24 11:31N 40°52' E 029°12'0 0.0
2015-Feb-24 10:31N 40°52' E 029°12'0 0.1
2015-Feb-24 09:31N 40°52' E 029°12'0 0.0
2015-Feb-24 08:31N 40°52' E 029°12'0 0.0
2015-Feb-24 07:31N 40°52' E 029°12'0 0.0
2015-Feb-24 06:25N 40°52' E 029°12'0 0.0
2015-Feb-24 05:31N 40°52' E 029°12'0 0.0
2015-Feb-24 04:19N 40°52' E 029°12'0 0.0
2015-Feb-24 03:31N 40°52' E 029°12'0 0.0
2015-Feb-24 02:31N 40°52' E 029°12'0 0.0
2015-Feb-24 01:25N 40°52' E 029°12'0 0.0
2015-Feb-24 00:25N 40°52' E 029°12'0 0.1
2015-Feb-23 23:19N 40°52' E 029°12'1 1.4
2015-Feb-23 22:33N 40°51' E 029°11'8 8.3
2015-Feb-23 21:33N 40°51' E 028°60'7 6.7
2015-Feb-23 20:32N 40°57' E 028°57'1 1.1
2015-Feb-23 19:21N 40°58' E 028°57'0 0.0
2015-Feb-23 18:11N 40°58' E 028°57'0 0.0
2015-Feb-23 17:17N 40°58' E 028°57'0 0.0
2015-Feb-23 16:29N 40°58' E 028°57'0 0.0
2015-Feb-23 15:29N 40°58' E 028°57'0 0.0
2015-Feb-23 14:29N 40°58' E 028°57'0 0.0
2015-Feb-23 13:29N 40°58' E 028°57'0 0.0
2015-Feb-23 12:23N 40°58' E 028°57'0 0.0
2015-Feb-23 11:23N 40°58' E 028°57'0 0.0
2015-Feb-23 10:29N 40°58' E 028°57'0 0.0
2015-Feb-23 09:05N 40°58' E 028°57'0 0.2
2015-Feb-23 08:33N 40°58' E 028°57'23 7.7
2015-Feb-23 05:33N 41°20' E 029°06'16 0.7
2015-Feb-22 06:07N 41°32' E 028°52'324 7.4
2015-Feb-20 10:07N 46°35' E 031°32'610.5
2015-Feb-20 09:32N 46°36' E 031°41'9 9.7
2015-Feb-20 08:34N 46°34' E 031°54'10 9.3
2015-Feb-20 07:32N 46°32' E 032°08'9 8.6
2015-Feb-20 06:31N 46°33' E 032°20'  

Dump ship's entire track history